Time;durP1;ratioP1;P1;durP2;ratioP2;P2;SDS_P1;SDS_P2;PMS_P1;PMS_P2;Temp;Humidity;BMP_temperature;BMP_pressure;BME280_temperature;BME280_humidity;BME280_pressure;Samples;Min_cycle;Max_cycle;Signal;HPM_P1;HPM_P2
2022/03/21 00:00:56;;;;;;;61.28;40.83;;;5.40;99.90;;;;;;4963469;28;20051;-58
2022/03/21 00:03:24;;;;;;;61.55;39.97;;;5.40;99.90;;;;;;4963266;29;20076;-58
2022/03/21 00:05:51;;;;;;;64.20;41.00;;;5.40;99.90;;;;;;4962302;29;20052;-58
2022/03/21 00:08:18;;;;;;;63.15;41.47;;;5.40;99.90;;;;;;4964179;28;20047;-58
2022/03/21 00:10:45;;;;;;;66.03;40.92;;;5.40;99.90;;;;;;4962615;28;20938;-59
2022/03/21 00:13:15;;;;;;;62.85;40.47;;;5.40;99.90;;;;;;4946028;29;20074;-58
2022/03/21 00:15:42;;;;;;;60.03;39.95;;;5.40;99.90;;;;;;4947400;29;20135;-57
2022/03/21 00:18:08;;;;;;;64.15;41.20;;;5.30;99.90;;;;;;4963099;28;20436;-58
2022/03/21 00:20:34;;;;;;;66.03;40.72;;;5.40;99.90;;;;;;4964488;28;20082;-59
2022/03/21 00:23:01;;;;;;;66.43;42.17;;;5.40;99.90;;;;;;4961840;29;20066;-58
2022/03/21 00:25:27;;;;;;;63.05;41.78;;;5.40;99.90;;;;;;4962650;28;20035;-58
2022/03/21 00:27:54;;;;;;;63.92;41.83;;;5.40;99.90;;;;;;4963822;28;20403;-58
2022/03/21 00:30:19;;;;;;;64.35;40.75;;;5.40;99.90;;;;;;4963160;28;20103;-58
2022/03/21 00:32:46;;;;;;;63.58;39.50;;;5.30;99.90;;;;;;4963979;29;20087;-56
2022/03/21 00:35:15;;;;;;;63.85;41.03;;;5.30;99.90;;;;;;4963013;28;20043;-58
2022/03/21 00:37:42;;;;;;;63.25;41.38;;;5.20;99.90;;;;;;4963959;28;20049;-58
2022/03/21 00:40:08;;;;;;;65.93;40.75;;;5.20;99.90;;;;;;4961697;29;20098;-58
2022/03/21 00:42:38;;;;;;;64.47;42.17;;;5.20;99.90;;;;;;4963501;28;20602;-58
2022/03/21 00:45:07;;;;;;;67.35;43.22;;;5.20;99.90;;;;;;4962456;29;20074;-58
2022/03/21 00:47:33;;;;;;;66.43;41.33;;;5.20;99.90;;;;;;4961403;29;20047;-58
2022/03/21 00:49:59;;;;;;;64.93;43.35;;;5.10;99.90;;;;;;4930491;29;20099;-59
2022/03/21 00:52:25;;;;;;;60.85;40.78;;;5.20;99.90;;;;;;4945176;29;20079;-58
2022/03/21 00:54:51;;;;;;;65.80;43.38;;;5.10;99.90;;;;;;4963726;28;20043;-59
2022/03/21 00:57:16;;;;;;;66.15;39.92;;;5.10;99.90;;;;;;4962789;28;20087;-58
2022/03/21 00:59:42;;;;;;;66.82;39.28;;;5.00;99.90;;;;;;4963321;29;20055;-58
2022/03/21 01:02:12;;;;;;;67.47;40.40;;;5.00;99.90;;;;;;4963087;28;20094;-58
2022/03/21 01:04:39;;;;;;;62.00;39.92;;;5.10;99.90;;;;;;4961039;29;20059;-58
2022/03/21 01:07:05;;;;;;;65.43;40.20;;;5.00;99.90;;;;;;4962214;29;20110;-58
2022/03/21 01:09:31;;;;;;;61.42;38.17;;;5.00;99.90;;;;;;4944568;29;20047;-58
2022/03/21 01:11:56;;;;;;;55.22;38.22;;;5.00;99.90;;;;;;4963714;28;20070;-59
2022/03/21 01:14:22;;;;;;;60.42;38.75;;;5.00;99.90;;;;;;4960856;28;20059;-58
2022/03/21 01:16:50;;;;;;;59.90;38.20;;;4.90;99.90;;;;;;4962695;29;20070;-58
2022/03/21 01:19:15;;;;;;;59.28;37.83;;;5.00;99.90;;;;;;4962676;29;20395;-58
2022/03/21 01:21:41;;;;;;;56.63;37.88;;;4.80;99.90;;;;;;4962244;28;20536;-58
2022/03/21 01:24:07;;;;;;;58.70;37.30;;;4.80;99.90;;;;;;4962774;29;20126;-57
2022/03/21 01:26:32;;;;;;;58.33;37.35;;;4.90;99.90;;;;;;4962133;28;20050;-58
2022/03/21 01:28:58;;;;;;;56.15;36.47;;;4.80;99.90;;;;;;4961863;29;20154;-57
2022/03/21 01:31:24;;;;;;;56.78;36.00;;;4.90;99.90;;;;;;4961892;28;20066;-58
2022/03/21 01:33:50;;;;;;;58.03;36.78;;;4.80;99.90;;;;;;4961342;29;20043;-58
2022/03/21 01:36:16;;;;;;;55.67;34.83;;;5.10;99.90;;;;;;4960825;28;20039;-57
2022/03/21 01:38:42;;;;;;;57.58;36.20;;;4.90;99.90;;;;;;4962018;29;20053;-58
2022/03/21 01:41:07;;;;;;;56.05;35.10;;;4.80;99.90;;;;;;4962514;29;20074;-58
2022/03/21 01:43:54;;;;;;;57.38;35.45;;;4.70;99.90;;;;;;4961693;28;20054;-58
2022/03/21 01:46:19;;;;;;;59.83;35.00;;;4.70;99.90;;;;;;4962530;28;20039;-58
2022/03/21 01:48:45;;;;;;;49.88;33.75;;;4.80;99.90;;;;;;4961944;29;20051;-58
2022/03/21 01:51:11;;;;;;;54.22;33.35;;;4.70;99.90;;;;;;4962235;29;20101;-58
2022/03/21 01:56:20;;;;;;;55.58;31.58;;;4.70;99.90;;;;;;4961673;29;20063;-58
2022/03/21 01:58:46;;;;;;;54.83;35.13;;;4.70;99.90;;;;;;4962600;29;20039;-58
2022/03/21 02:01:12;;;;;;;52.92;34.30;;;4.60;99.90;;;;;;4961348;29;20099;-58
2022/03/21 02:03:38;;;;;;;57.03;34.88;;;4.60;99.90;;;;;;4962451;29;20132;-59
2022/03/21 02:06:04;;;;;;;51.22;32.13;;;4.60;99.90;;;;;;4960709;28;20052;-58
2022/03/21 02:08:29;;;;;;;54.88;33.33;;;4.60;99.90;;;;;;4961933;29;20098;-58
2022/03/21 02:10:55;;;;;;;55.17;34.28;;;4.60;99.90;;;;;;4960892;29;20039;-59
2022/03/21 02:13:22;;;;;;;51.50;32.97;;;4.60;99.90;;;;;;4961162;29;20043;-59
2022/03/21 02:15:48;;;;;;;53.92;32.67;;;4.50;99.90;;;;;;4945009;29;20059;-59
2022/03/21 02:18:17;;;;;;;51.85;33.42;;;4.50;99.90;;;;;;4943724;29;20119;-58
2022/03/21 02:20:44;;;;;;;53.58;32.40;;;4.40;99.90;;;;;;4961027;29;20051;-59
2022/03/21 02:23:19;;;;;;;52.65;32.55;;;4.50;99.90;;;;;;4961568;28;20055;-59
2022/03/21 02:25:45;;;;;;;50.70;31.30;;;4.40;99.90;;;;;;4961672;28;20039;-59
2022/03/21 02:28:14;;;;;;;50.20;30.67;;;4.40;99.90;;;;;;4960780;29;20055;-59
2022/03/21 02:30:47;;;;;;;53.05;31.55;;;4.30;99.90;;;;;;4959626;29;20055;-59
2022/03/21 02:33:15;;;;;;;48.03;30.70;;;4.40;99.90;;;;;;4961334;29;20062;-59
2022/03/21 02:35:44;;;;;;;47.95;30.73;;;4.30;99.90;;;;;;4961229;28;20047;-57
2022/03/21 02:38:12;;;;;;;52.50;31.92;;;4.20;99.90;;;;;;4962043;28;20110;-59
2022/03/21 02:40:38;;;;;;;46.67;29.75;;;4.20;99.90;;;;;;4961887;28;20039;-57
2022/03/21 02:43:04;;;;;;;47.38;31.10;;;4.20;99.90;;;;;;4959924;29;20047;-59
2022/03/21 02:45:30;;;;;;;48.17;29.88;;;4.20;99.90;;;;;;4961926;28;20098;-59
2022/03/21 02:47:56;;;;;;;47.78;29.00;;;4.20;99.90;;;;;;4959714;28;20055;-59
2022/03/21 02:50:55;;;;;;;47.33;29.75;;;4.20;99.90;;;;;;4965971;29;20050;-59
2022/03/21 02:53:22;;;;;;;44.80;28.08;;;4.10;99.90;;;;;;4948369;29;20078;-58
2022/03/21 02:55:52;;;;;;;54.60;31.02;;;4.00;99.90;;;;;;4963626;29;20051;-59
2022/03/21 02:58:18;;;;;;;46.22;28.35;;;4.10;99.90;;;;;;4964315;29;20039;-59
2022/03/21 03:00:44;;;;;;;45.83;28.58;;;3.90;99.90;;;;;;4964639;29;20043;-58
2022/03/21 03:03:09;;;;;;;48.33;28.38;;;3.90;99.90;;;;;;4965869;28;20082;-58
2022/03/21 03:05:35;;;;;;;46.58;29.30;;;3.90;99.90;;;;;;4964189;29;20039;-59
2022/03/21 03:08:02;;;;;;;50.35;30.20;;;3.80;99.90;;;;;;4965465;29;20036;-58
2022/03/21 03:10:28;;;;;;;47.45;31.15;;;3.80;99.90;;;;;;4947475;29;20050;-58
2022/03/21 03:12:53;;;;;;;46.92;29.33;;;3.70;99.90;;;;;;4964563;28;20047;-59
2022/03/21 03:15:19;;;;;;;46.88;28.80;;;3.80;99.90;;;;;;4965342;29;20507;-58
2022/03/21 03:17:45;;;;;;;45.67;27.70;;;3.80;99.90;;;;;;4964237;28;20051;-58
2022/03/21 03:20:11;;;;;;;50.47;29.52;;;3.80;99.90;;;;;;4965254;29;20094;-58
2022/03/21 03:22:37;;;;;;;47.92;29.13;;;3.80;99.90;;;;;;4964095;28;20051;-58
2022/03/21 03:25:04;;;;;;;47.78;27.58;;;3.80;99.90;;;;;;4965257;28;20122;-58
2022/03/21 03:27:31;;;;;;;47.28;27.98;;;3.80;99.90;;;;;;4964631;28;20582;-57
2022/03/21 03:29:57;;;;;;;52.67;28.83;;;3.80;99.90;;;;;;4964418;28;20066;-58
2022/03/21 03:32:24;;;;;;;49.28;28.65;;;3.80;99.90;;;;;;4947522;29;20047;-58
2022/03/21 03:34:50;;;;;;;42.47;26.08;;;4.00;99.90;;;;;;4963914;28;20062;-58
2022/03/21 03:37:16;;;;;;;42.20;24.33;;;3.90;99.90;;;;;;4965308;29;20047;-58
2022/03/21 03:39:43;;;;;;;39.88;24.45;;;3.80;99.90;;;;;;4962276;29;20102;-59
2022/03/21 03:42:08;;;;;;;40.15;23.08;;;3.90;99.90;;;;;;4965133;28;20546;-60
2022/03/21 03:44:34;;;;;;;42.20;24.70;;;4.00;99.90;;;;;;4947052;29;20044;-58
2022/03/21 03:47:00;;;;;;;41.00;23.25;;;3.90;99.90;;;;;;4964371;28;20050;-58
2022/03/21 03:49:26;;;;;;;39.80;23.65;;;4.00;99.90;;;;;;4964297;29;20524;-57
2022/03/21 03:51:52;;;;;;;39.25;22.98;;;3.90;99.90;;;;;;4963687;29;20051;-59
2022/03/21 03:54:18;;;;;;;38.92;24.08;;;3.90;99.90;;;;;;4964748;29;20043;-58
2022/03/21 03:56:44;;;;;;;37.53;23.00;;;3.90;99.90;;;;;;4963480;29;20051;-58
2022/03/21 03:59:10;;;;;;;35.45;21.85;;;3.90;99.90;;;;;;4963202;28;20110;-58
2022/03/21 04:01:37;;;;;;;34.17;20.65;;;3.80;99.90;;;;;;4963899;29;20047;-58
2022/03/21 04:04:04;;;;;;;35.20;21.08;;;3.90;99.90;;;;;;4964007;29;20055;-58
2022/03/21 04:06:29;;;;;;;36.00;21.25;;;3.80;99.90;;;;;;4963072;29;20428;-59
2022/03/21 04:08:55;;;;;;;36.60;21.67;;;3.80;99.90;;;;;;4963592;28;20046;-59
2022/03/21 04:11:21;;;;;;;35.63;20.38;;;3.80;99.90;;;;;;4964196;29;20047;-58
2022/03/21 04:13:47;;;;;;;35.60;20.85;;;3.70;99.90;;;;;;4961644;29;20051;-58
2022/03/21 04:16:16;;;;;;;37.13;20.65;;;3.80;99.90;;;;;;4962935;29;20047;-58
2022/03/21 04:18:42;;;;;;;36.28;21.73;;;3.70;99.90;;;;;;4963444;28;20082;-58
2022/03/21 04:21:08;;;;;;;34.50;20.17;;;3.70;99.90;;;;;;4963664;28;20063;-58
2022/03/21 04:23:34;;;;;;;35.17;20.10;;;3.60;99.90;;;;;;4962603;29;20078;-58
2022/03/21 04:26:00;;;;;;;39.60;21.67;;;3.50;99.90;;;;;;4963264;29;20051;-58
2022/03/21 04:28:25;;;;;;;34.55;20.17;;;3.60;99.90;;;;;;4964118;28;20082;-58
2022/03/21 04:30:51;;;;;;;34.65;20.33;;;3.50;99.90;;;;;;4962814;29;20090;-58
2022/03/21 04:33:17;;;;;;;33.90;20.40;;;3.40;99.90;;;;;;4964411;29;20095;-58
2022/03/21 04:35:44;;;;;;;33.70;20.42;;;3.50;99.90;;;;;;4963103;28;20110;-55
2022/03/21 04:38:14;;;;;;;35.30;20.30;;;3.40;99.90;;;;;;4962321;28;20051;-58
2022/03/21 04:40:45;;;;;;;31.88;19.17;;;3.30;99.90;;;;;;4963516;28;20069;-58
2022/03/21 04:43:11;;;;;;;30.38;18.67;;;3.40;99.90;;;;;;4962814;28;20102;-58
2022/03/21 04:45:37;;;;;;;35.88;19.98;;;3.40;99.90;;;;;;4962312;29;20042;-58
2022/03/21 04:48:04;;;;;;;34.08;20.17;;;3.30;99.90;;;;;;4962599;28;20082;-58
2022/03/21 04:50:31;;;;;;;33.50;19.20;;;3.30;99.90;;;;;;4963983;28;20142;-57
2022/03/21 04:52:57;;;;;;;33.08;18.95;;;3.30;99.90;;;;;;4962731;28;20047;-56
2022/03/21 04:55:23;;;;;;;30.63;19.38;;;3.20;99.90;;;;;;4963373;28;20114;-57
2022/03/21 04:57:49;;;;;;;35.13;20.52;;;3.30;99.90;;;;;;4963417;28;20071;-57
2022/03/21 05:00:15;;;;;;;31.75;18.38;;;3.30;99.90;;;;;;4962681;28;20043;-57
2022/03/21 05:02:41;;;;;;;33.47;19.20;;;3.30;99.90;;;;;;4963580;28;20039;-57
2022/03/21 05:05:08;;;;;;;33.28;18.98;;;3.10;99.90;;;;;;4962214;29;20043;-58
2022/03/21 05:07:52;;;;;;;33.40;19.17;;;3.10;99.90;;;;;;4963578;28;20067;-57
2022/03/21 05:10:19;;;;;;;32.08;18.95;;;3.20;99.90;;;;;;4962801;28;20058;-57
2022/03/21 05:12:45;;;;;;;29.10;18.33;;;3.10;99.90;;;;;;4960536;28;20546;-57
2022/03/21 05:15:10;;;;;;;35.42;18.83;;;3.20;99.90;;;;;;4962963;28;20055;-56
2022/03/21 05:17:36;;;;;;;28.10;17.58;;;3.10;99.90;;;;;;4961780;29;20062;-57
2022/03/21 05:20:10;;;;;;;27.13;16.90;;;3.10;99.90;;;;;;4961701;29;20051;-57
2022/03/21 05:22:36;;;;;;;31.67;18.65;;;3.10;99.90;;;;;;4962016;28;20378;-56
2022/03/21 05:36:00;;;;;;;31.92;18.25;;;3.00;99.90;;;;;;4962188;29;20055;-57
2022/03/21 05:38:28;;;;;;;33.55;18.20;;;2.90;99.90;;;;;;4962575;28;20051;-57
2022/03/21 05:40:58;;;;;;;30.13;17.70;;;2.90;99.90;;;;;;4962602;28;20491;-57
2022/03/21 05:43:25;;;;;;;36.40;18.30;;;2.80;99.90;;;;;;4960433;29;20098;-57
2022/03/21 05:45:52;;;;;;;27.80;16.98;;;2.90;99.90;;;;;;4962604;29;20054;-57
2022/03/21 05:51:05;;;;;;;29.10;18.35;;;2.90;99.90;;;;;;4962380;29;20142;-57
2022/03/21 05:53:31;;;;;;;31.65;19.30;;;3.00;99.90;;;;;;4961275;29;20090;-57
2022/03/21 05:56:00;;;;;;;28.27;17.58;;;2.90;99.90;;;;;;4961632;28;20051;-56
2022/03/21 05:58:26;;;;;;;31.90;17.77;;;3.00;99.90;;;;;;4962415;28;20035;-57
2022/03/21 06:00:52;;;;;;;30.85;16.90;;;3.10;99.90;;;;;;4959934;29;20094;-57
2022/03/21 06:03:18;;;;;;;33.30;17.55;;;3.00;99.90;;;;;;4961450;29;20040;-57
2022/03/21 06:05:45;;;;;;;32.13;17.77;;;3.00;99.90;;;;;;4960313;29;20433;-57
2022/03/21 06:08:11;;;;;;;32.45;18.05;;;3.00;99.90;;;;;;4962194;29;20058;-57
2022/03/21 06:10:37;;;;;;;29.58;17.58;;;3.10;99.90;;;;;;4961812;29;20047;-56
2022/03/21 06:13:05;;;;;;;30.45;18.27;;;3.10;99.90;;;;;;4961034;29;20043;-57
2022/03/21 06:15:35;;;;;;;29.40;17.80;;;3.10;99.90;;;;;;4962138;28;20055;-57
2022/03/21 06:18:02;;;;;;;32.75;19.08;;;3.20;99.90;;;;;;4961178;28;20126;-57
2022/03/21 06:20:28;;;;;;;29.50;17.33;;;3.20;99.90;;;;;;4962392;28;20090;-57
2022/03/21 06:22:54;;;;;;;29.15;17.05;;;3.20;99.90;;;;;;4963060;28;20408;-57
2022/03/21 06:25:20;;;;;;;30.10;17.95;;;3.20;99.90;;;;;;4965764;29;20062;-58
2022/03/21 06:27:48;;;;;;;32.00;17.88;;;3.30;99.90;;;;;;4964295;29;20047;-58
2022/03/21 06:30:15;;;;;;;33.90;19.38;;;3.40;99.90;;;;;;4962863;29;20061;-59
2022/03/21 06:32:40;;;;;;;30.45;17.85;;;3.40;99.90;;;;;;4962674;28;20103;-59
2022/03/21 06:35:09;;;;;;;27.60;16.80;;;3.50;99.90;;;;;;4959836;29;20081;-59
2022/03/21 06:37:35;;;;;;;32.03;18.83;;;3.40;99.90;;;;;;4962750;28;20043;-59
2022/03/21 06:40:01;;;;;;;29.15;17.60;;;3.60;99.90;;;;;;4961463;28;20082;-59
2022/03/21 06:42:27;;;;;;;33.60;17.33;;;3.70;99.90;;;;;;4961557;28;20047;-59
2022/03/21 06:44:55;;;;;;;25.70;16.85;;;3.70;99.90;;;;;;4961949;29;20048;-57
2022/03/21 06:47:21;;;;;;;28.67;17.15;;;3.80;99.90;;;;;;4943723;29;20048;-57
2022/03/21 06:49:48;;;;;;;27.35;16.55;;;3.80;99.90;;;;;;4961868;28;20063;-57
2022/03/21 06:52:16;;;;;;;28.13;17.52;;;3.80;99.90;;;;;;4960974;29;20058;-57
2022/03/21 06:54:42;;;;;;;27.05;16.52;;;4.00;99.90;;;;;;4961917;28;20043;-57
2022/03/21 06:57:09;;;;;;;31.83;17.33;;;3.90;99.90;;;;;;4961269;28;20525;-57
2022/03/21 06:59:35;;;;;;;33.28;18.50;;;4.10;99.90;;;;;;4961618;28;20075;-57
2022/03/21 07:02:01;;;;;;;31.15;18.92;;;4.10;99.90;;;;;;4961599;28;20047;-58
2022/03/21 07:04:26;;;;;;;27.95;16.88;;;4.20;99.90;;;;;;4960938;29;20042;-58
2022/03/21 07:06:53;;;;;;;33.05;17.95;;;4.30;99.90;;;;;;4961870;28;20545;-57
2022/03/21 07:09:19;;;;;;;34.08;18.25;;;4.40;99.90;;;;;;4960543;28;20051;-58
2022/03/21 07:11:45;;;;;;;30.48;18.55;;;4.40;99.90;;;;;;4962102;28;20042;-58
2022/03/21 07:14:10;;;;;;;36.08;20.17;;;4.50;99.90;;;;;;4960680;28;20460;-58
2022/03/21 07:16:37;;;;;;;34.30;18.42;;;4.40;99.90;;;;;;4959706;29;20047;-58
2022/03/21 07:19:03;;;;;;;36.97;20.02;;;4.60;99.90;;;;;;4961139;28;20106;-58
2022/03/21 07:21:29;;;;;;;31.77;20.33;;;4.70;99.90;;;;;;4960710;29;20177;-58
2022/03/21 07:23:54;;;;;;;31.85;20.17;;;4.70;99.90;;;;;;4961287;29;20050;-58
2022/03/21 07:26:20;;;;;;;34.30;21.40;;;4.80;99.90;;;;;;4959478;29;20047;-58
2022/03/21 07:28:46;;;;;;;34.72;20.23;;;4.80;99.90;;;;;;4961333;29;20036;-58
2022/03/21 07:31:11;;;;;;;32.42;19.90;;;5.00;99.90;;;;;;4957533;29;20079;-57
2022/03/21 07:33:38;;;;;;;33.90;20.63;;;4.90;99.90;;;;;;4960511;28;20134;-58
2022/03/21 07:36:04;;;;;;;38.88;21.70;;;5.30;99.90;;;;;;4959913;29;20043;-57
2022/03/21 07:38:30;;;;;;;39.58;23.08;;;5.10;99.90;;;;;;4960482;28;20062;-57
2022/03/21 07:40:57;;;;;;;38.42;23.42;;;5.10;99.90;;;;;;4961065;29;20047;-58
2022/03/21 07:43:22;;;;;;;42.47;24.02;;;5.20;99.90;;;;;;4959744;29;20047;-58
2022/03/21 07:48:33;;;;;;;39.75;24.88;;;5.50;99.90;;;;;;4941021;29;20062;-58
2022/03/21 07:50:59;;;;;;;45.42;25.58;;;5.50;99.90;;;;;;4941478;29;20055;-57
2022/03/21 07:53:24;;;;;;;37.25;23.20;;;5.70;99.90;;;;;;4941714;29;20055;-57
2022/03/21 07:55:51;;;;;;;40.40;23.45;;;5.70;99.90;;;;;;4940679;29;20127;-58
2022/03/21 07:58:16;;;;;;;36.40;23.02;;;5.80;99.90;;;;;;4941799;29;20416;-58
2022/03/21 08:00:43;;;;;;;32.95;22.00;;;5.80;99.90;;;;;;4940556;29;20044;-56
2022/03/21 08:03:14;;;;;;;36.08;22.05;;;6.00;99.90;;;;;;4940651;29;20167;-57
2022/03/21 08:05:40;;;;;;;35.70;22.05;;;6.00;99.90;;;;;;4957515;29;20142;-58
2022/03/21 08:08:07;;;;;;;37.15;22.13;;;6.20;99.90;;;;;;4960400;28;20058;-58
2022/03/21 08:10:33;;;;;;;33.72;21.10;;;6.20;99.90;;;;;;4960427;28;20051;-57
2022/03/21 08:12:59;;;;;;;34.80;21.60;;;6.40;99.90;;;;;;4959827;28;20047;-58
2022/03/21 08:15:26;;;;;;;31.83;20.00;;;6.40;99.90;;;;;;4959395;29;20043;-58
2022/03/21 08:18:03;;;;;;;34.60;21.25;;;6.60;99.90;;;;;;4959152;29;20046;-58
2022/03/21 08:20:33;;;;;;;33.63;20.98;;;6.60;99.90;;;;;;4960309;28;20139;-58
2022/03/21 08:23:17;;;;;;;31.95;20.65;;;6.80;99.90;;;;;;4959720;28;20519;-58
2022/03/21 08:25:45;;;;;;;40.28;23.38;;;6.90;99.90;;;;;;4959601;29;20047;-57
2022/03/21 08:28:12;;;;;;;33.42;21.63;;;7.00;99.90;;;;;;4960477;28;20102;-58
2022/03/21 08:30:39;;;;;;;34.75;22.80;;;7.10;99.90;;;;;;4957550;28;20540;-58
2022/03/21 08:33:07;;;;;;;38.22;23.30;;;7.20;99.90;;;;;;4960861;29;20050;-58
2022/03/21 08:35:36;;;;;;;39.90;23.00;;;7.30;99.90;;;;;;4959170;28;20079;-57
2022/03/21 08:38:03;;;;;;;36.28;22.02;;;7.40;99.90;;;;;;4960457;28;20085;-58
2022/03/21 08:40:28;;;;;;;37.63;23.00;;;7.50;99.90;;;;;;4961760;28;20055;-57
2022/03/21 08:42:55;;;;;;;33.22;20.88;;;7.70;99.90;;;;;;4961236;29;20054;-58
2022/03/21 08:45:21;;;;;;;35.95;21.30;;;7.70;99.90;;;;;;4963634;28;20067;-59
2022/03/21 08:47:50;;;;;;;33.55;21.48;;;7.80;99.90;;;;;;4961828;28;20061;-58
2022/03/21 08:50:16;;;;;;;35.08;20.92;;;7.90;99.90;;;;;;4962679;29;20043;-57
2022/03/21 08:52:42;;;;;;;35.58;21.58;;;8.00;99.90;;;;;;4962751;28;20050;-58
2022/03/21 08:55:08;;;;;;;34.17;22.48;;;8.10;99.90;;;;;;4963826;29;20035;-58
2022/03/21 08:57:34;;;;;;;36.08;21.70;;;8.10;99.90;;;;;;4963230;28;20043;-57
2022/03/21 09:00:02;;;;;;;34.83;21.95;;;8.10;99.90;;;;;;4962785;29;20051;-57
2022/03/21 09:02:27;;;;;;;36.13;21.95;;;8.20;99.90;;;;;;4963584;28;20414;-57
2022/03/21 09:04:53;;;;;;;34.53;19.92;;;8.30;99.90;;;;;;4962168;28;20099;-58
2022/03/21 09:07:19;;;;;;;40.80;22.83;;;8.40;99.90;;;;;;4963602;28;20099;-57
2022/03/21 09:09:45;;;;;;;32.92;20.92;;;8.40;99.90;;;;;;4962141;29;20039;-57
2022/03/21 09:12:11;;;;;;;35.85;21.13;;;8.40;99.90;;;;;;4961716;28;20039;-58
2022/03/21 09:14:37;;;;;;;36.80;22.83;;;8.50;99.90;;;;;;4961462;29;20055;-58
2022/03/21 09:17:04;;;;;;;38.80;23.23;;;8.60;99.90;;;;;;4962308;28;20043;-57
2022/03/21 09:19:30;;;;;;;36.25;22.98;;;8.70;99.90;;;;;;4961752;29;20138;-58
2022/03/21 09:21:57;;;;;;;40.70;22.70;;;8.80;99.90;;;;;;4962013;28;20051;-58
2022/03/21 09:24:24;;;;;;;34.00;20.52;;;8.90;99.90;;;;;;4961969;29;20087;-57
2022/03/21 09:26:50;;;;;;;36.60;21.70;;;8.90;99.90;;;;;;4961926;28;20123;-56
2022/03/21 09:29:16;;;;;;;36.67;23.65;;;8.90;99.90;;;;;;4945617;29;20101;-58
2022/03/21 09:31:42;;;;;;;34.97;21.52;;;9.00;99.90;;;;;;4962417;28;20099;-57
2022/03/21 09:34:09;;;;;;;32.30;20.23;;;9.10;99.90;;;;;;4962166;29;20549;-55
2022/03/21 09:36:35;;;;;;;33.17;20.15;;;9.20;99.90;;;;;;4962975;28;20043;-58
2022/03/21 09:39:01;;;;;;;33.03;20.30;;;9.30;99.90;;;;;;4960449;29;20055;-58
2022/03/21 09:41:29;;;;;;;37.25;22.13;;;9.30;99.90;;;;;;4963100;28;20051;-57
2022/03/21 09:44:01;;;;;;;31.88;20.38;;;9.50;99.90;;;;;;4961633;28;20055;-57
2022/03/21 09:46:27;;;;;;;33.08;20.65;;;9.50;99.90;;;;;;4961210;29;20078;-58
2022/03/21 09:48:54;;;;;;;33.97;19.85;;;9.60;99.90;;;;;;4962413;28;20062;-59
2022/03/21 09:51:28;;;;;;;33.20;19.15;;;9.60;99.90;;;;;;4960558;29;20047;-58
2022/03/21 09:53:55;;;;;;;31.58;19.52;;;9.70;99.90;;;;;;4961336;29;20106;-58
2022/03/21 09:56:24;;;;;;;32.33;18.95;;;9.80;99.90;;;;;;4961385;28;20744;-58
2022/03/21 09:58:50;;;;;;;32.47;18.42;;;9.70;99.90;;;;;;4962616;28;20047;-58
2022/03/21 10:01:17;;;;;;;35.58;20.73;;;9.80;99.90;;;;;;4961614;28;20086;-61
2022/03/21 10:03:43;;;;;;;30.15;18.08;;;10.00;99.90;;;;;;4960975;29;20047;-59
2022/03/21 10:06:28;;;;;;;28.10;18.15;;;10.00;99.90;;;;;;4962279;29;20807;-58
2022/03/21 10:09:04;;;;;;;29.95;18.02;;;10.10;99.90;;;;;;4961513;29;20035;-59
2022/03/21 10:11:30;;;;;;;25.42;16.95;;;10.20;99.90;;;;;;4962662;28;20079;-58
2022/03/21 10:13:56;;;;;;;25.70;16.40;;;10.30;99.90;;;;;;4961173;28;20043;-58
2022/03/21 10:16:21;;;;;;;27.15;17.02;;;10.30;99.90;;;;;;4962131;29;20047;-58
2022/03/21 10:18:53;;;;;;;27.83;17.05;;;10.50;99.90;;;;;;4961900;29;20090;-58
2022/03/21 10:21:20;;;;;;;25.80;15.45;;;10.50;99.90;;;;;;4961473;29;20055;-58
2022/03/21 10:24:02;;;;;;;25.58;16.00;;;10.60;99.90;;;;;;4944857;29;20142;-58
2022/03/21 10:26:28;;;;;;;;;;;10.70;99.90;;;;;;4961504;28;20058;-58
2022/03/21 10:28:56;;;;;;;26.02;15.23;;;10.80;99.90;;;;;;4962461;28;19923;-58
2022/03/21 10:31:47;;;;;;;21.20;13.68;;;10.90;99.90;;;;;;4961176;28;20091;-59
2022/03/21 10:34:21;;;;;;;20.60;12.95;;;10.90;99.90;;;;;;4961493;28;20395;-58
2022/03/21 10:36:59;;;;;;;24.10;14.93;;;10.90;99.90;;;;;;4962017;28;20059;-59
2022/03/21 10:39:26;;;;;;;25.77;16.13;;;11.00;99.90;;;;;;4961123;28;20095;-58
2022/03/21 10:41:57;;;;;;;24.95;15.85;;;11.00;99.90;;;;;;4961984;28;20050;-58
2022/03/21 10:44:23;;;;;;;24.05;14.25;;;11.00;99.90;;;;;;4961547;28;20510;-58
2022/03/21 10:46:54;;;;;;;19.95;13.05;;;11.10;99.90;;;;;;4961253;28;20459;-58
2022/03/21 10:49:46;;;;;;;24.90;15.77;;;11.20;99.90;;;;;;4962001;28;20047;-58
2022/03/21 10:52:19;;;;;;;24.85;15.20;;;11.20;99.90;;;;;;4957201;29;20427;-58
2022/03/21 10:54:48;;;;;;;25.48;16.42;;;11.30;99.90;;;;;;4962204;28;20247;-58
2022/03/21 10:57:36;;;;;;;23.02;15.32;;;11.40;99.90;;;;;;4961423;28;20055;-58
2022/03/21 11:00:17;;;;;;;25.27;15.93;;;11.40;99.90;;;;;;4961078;28;20082;-58
2022/03/21 11:03:14;;;;;;;26.08;16.20;;;11.50;99.90;;;;;;4961793;28;20050;-57
2022/03/21 11:05:42;;;;;;;25.48;16.45;;;11.50;99.90;;;;;;4959958;29;20400;-59
2022/03/21 11:08:10;;;;;;;26.67;16.65;;;11.60;99.90;;;;;;4961601;28;20051;-58
2022/03/21 11:10:37;;;;;;;26.33;16.38;;;11.70;99.90;;;;;;4962691;28;20117;-58
2022/03/21 11:13:05;;;;;;;26.40;16.65;;;11.70;99.90;;;;;;4964441;28;20071;-58
2022/03/21 11:15:32;;;;;;;23.88;15.43;;;11.90;99.90;;;;;;4965355;28;20371;-59
2022/03/21 11:17:58;;;;;;;26.65;16.15;;;11.80;99.90;;;;;;4964312;28;20051;-58
2022/03/21 11:20:28;;;;;;;25.25;15.65;;;11.90;99.90;;;;;;4965443;29;20056;-58
2022/03/21 11:22:55;;;;;;;28.13;17.98;;;12.00;99.90;;;;;;4964785;28;20047;-58
2022/03/21 11:25:24;;;;;;;25.00;15.55;;;12.10;99.90;;;;;;4963440;29;20052;-59
2022/03/21 11:28:08;;;;;;;25.55;15.80;;;12.30;99.90;;;;;;4965074;28;20058;-59
2022/03/21 11:30:46;;;;;;;22.90;15.40;;;12.20;99.00;;;;;;4964243;29;20368;-59
2022/03/21 11:33:46;;;;;;;24.65;15.65;;;12.30;98.70;;;;;;4965397;28;20047;-58
2022/03/21 11:36:12;;;;;;;24.17;15.93;;;12.30;98.50;;;;;;4964813;28;20103;-58
2022/03/21 11:38:45;;;;;;;25.67;15.68;;;12.40;98.20;;;;;;4964388;29;20103;-58
2022/03/21 11:41:22;;;;;;;27.35;16.55;;;12.60;99.90;;;;;;4965031;28;20050;-59
2022/03/21 11:44:14;;;;;;;24.60;15.48;;;12.60;99.70;;;;;;4963729;28;20617;-58
2022/03/21 11:46:47;;;;;;;24.13;14.95;;;12.60;98.30;;;;;;4964260;28;20522;-59
2022/03/21 11:49:16;;;;;;;26.77;16.52;;;12.70;99.30;;;;;;4963156;29;20430;-62
2022/03/21 11:51:43;;;;;;;28.38;16.42;;;12.50;98.60;;;;;;4963856;29;20051;-58
2022/03/21 11:54:25;;;;;;;23.90;15.45;;;12.70;99.00;;;;;;4965001;28;20055;-58
2022/03/21 11:56:53;;;;;;;27.23;16.10;;;12.80;97.90;;;;;;4963504;28;20074;-58
2022/03/21 11:59:34;;;;;;;23.90;14.60;;;12.90;98.10;;;;;;4964507;28;20035;-59
2022/03/21 12:02:00;;;;;;;24.67;15.90;;;12.90;96.30;;;;;;4964303;29;20047;-59
2022/03/21 12:04:26;;;;;;;23.65;15.45;;;13.00;97.40;;;;;;4963665;29;20046;-58
2022/03/21 12:06:59;;;;;;;25.48;15.63;;;13.00;97.50;;;;;;4964252;28;20468;-59
2022/03/21 12:09:37;;;;;;;24.55;14.82;;;13.10;96.50;;;;;;4963207;28;20044;-59
2022/03/21 12:12:04;;;;;;;23.05;15.30;;;13.10;97.70;;;;;;4962983;29;20043;-58
2022/03/21 12:14:41;;;;;;;24.23;15.77;;;13.20;98.00;;;;;;4963990;28;20082;-58
2022/03/21 12:17:12;;;;;;;29.38;15.60;;;13.30;96.50;;;;;;4962006;29;20051;-58
2022/03/21 12:20:01;;;;;;;26.05;17.30;;;13.30;96.00;;;;;;4964159;29;20247;-58
2022/03/21 12:22:29;;;;;;;26.10;16.15;;;13.30;94.40;;;;;;4963358;28;20133;-58
2022/03/21 12:25:23;;;;;;;26.63;15.35;;;13.30;94.40;;;;;;4962720;29;20054;-60
2022/03/21 12:27:55;;;;;;;23.95;14.45;;;13.40;95.60;;;;;;4963899;28;20051;-58
2022/03/21 12:30:20;;;;;;;26.48;15.95;;;13.50;95.10;;;;;;4963124;28;20050;-58
2022/03/21 12:33:27;;;;;;;23.98;14.98;;;13.40;95.90;;;;;;4964487;29;20047;-58
2022/03/21 12:35:56;;;;;;;25.73;15.63;;;13.50;95.50;;;;;;4869596;29;20514;-58
2022/03/21 12:38:34;;;;;;;23.70;14.38;;;13.50;95.40;;;;;;4869325;29;20057;-58
2022/03/21 12:41:03;;;;;;;25.23;15.05;;;13.60;94.60;;;;;;4931354;28;20115;-58
2022/03/21 12:43:41;;;;;;;23.55;15.38;;;13.70;94.40;;;;;;4962705;28;20467;-58
2022/03/21 12:46:06;;;;;;;23.70;15.18;;;13.70;95.00;;;;;;4963730;28;20062;-59
2022/03/21 12:48:38;;;;;;;24.23;14.60;;;13.60;94.80;;;;;;4963157;29;20047;-59
2022/03/21 12:51:05;;;;;;;23.77;14.98;;;13.80;94.80;;;;;;4963232;28;20507;-59
2022/03/21 12:53:48;;;;;;;23.40;14.10;;;13.80;95.00;;;;;;4963541;28;20086;-57
2022/03/21 12:56:17;;;;;;;22.02;14.38;;;13.90;93.70;;;;;;4962706;28;20047;-57
2022/03/21 12:58:49;;;;;;;23.02;14.70;;;14.00;94.00;;;;;;4963993;28;20043;-57
2022/03/21 13:01:18;;;;;;;;;;;14.00;93.10;;;;;;4963214;28;20027;-56